Time;durP1;ratioP1;P1;durP2;ratioP2;P2;SDS_P1;SDS_P2;PMS_P1;PMS_P2;Temp;Humidity;BMP_temperature;BMP_pressure;BME280_temperature;BME280_humidity;BME280_pressure;Samples;Min_cycle;Max_cycle;Signal;HPM_P1;HPM_P2
2022/05/19 00:02:12;;;;;;;4.38;2.00;;;15.70;97.90;;;;;;5012013;28;20042;-54
2022/05/19 00:04:38;;;;;;;4.97;2.08;;;15.70;97.90;;;;;;5011974;28;20105;-51
2022/05/19 00:07:05;;;;;;;7.53;2.28;;;15.80;97.30;;;;;;5019665;28;20021;-48
2022/05/19 00:09:31;;;;;;;9.30;2.42;;;15.80;97.40;;;;;;5051677;28;20098;-54
2022/05/19 00:12:00;;;;;;;6.60;2.15;;;15.80;97.40;;;;;;5051484;28;20021;-48
2022/05/19 00:14:26;;;;;;;5.55;2.55;;;15.80;97.50;;;;;;5051577;28;20091;-43
2022/05/19 00:16:56;;;;;;;4.05;2.08;;;15.80;97.40;;;;;;5048810;28;20485;-43
2022/05/19 00:19:22;;;;;;;4.18;1.90;;;15.80;97.20;;;;;;5031536;28;20025;-45
2022/05/19 00:21:48;;;;;;;4.10;1.88;;;15.80;97.50;;;;;;5031533;28;20030;-46
2022/05/19 00:24:14;;;;;;;4.45;1.85;;;15.90;97.40;;;;;;5031375;28;20370;-41
2022/05/19 00:26:40;;;;;;;6.32;1.90;;;15.90;97.30;;;;;;5032014;28;20018;-51
2022/05/19 00:29:06;;;;;;;4.50;2.03;;;15.90;97.10;;;;;;5050909;28;20025;-44
2022/05/19 00:31:32;;;;;;;6.93;1.90;;;15.90;97.00;;;;;;5051318;28;20044;-39
2022/05/19 00:33:58;;;;;;;6.43;2.00;;;16.00;97.30;;;;;;5051210;28;20488;-39
2022/05/19 00:36:25;;;;;;;11.02;2.58;;;16.00;97.60;;;;;;5051125;28;20150;-44
2022/05/19 00:38:50;;;;;;;4.93;2.40;;;16.00;97.50;;;;;;5032570;28;20478;-43
2022/05/19 00:41:17;;;;;;;9.38;2.20;;;16.00;97.50;;;;;;5031279;28;20024;-48
2022/05/19 00:43:46;;;;;;;6.07;2.60;;;16.00;97.40;;;;;;5030429;28;20037;-54
2022/05/19 00:46:20;;;;;;;7.88;2.58;;;16.00;97.40;;;;;;5030888;28;20116;-46
2022/05/19 00:48:54;;;;;;;5.68;2.53;;;15.90;97.30;;;;;;5048785;28;20025;-39
2022/05/19 00:51:39;;;;;;;6.78;2.60;;;16.00;97.20;;;;;;5051005;28;20017;-39
2022/05/19 00:54:08;;;;;;;6.95;2.63;;;16.00;96.90;;;;;;5051003;28;20029;-40
2022/05/19 00:56:42;;;;;;;9.18;2.83;;;16.00;97.00;;;;;;5050902;28;20029;-42
2022/05/19 00:59:14;;;;;;;7.35;2.92;;;16.00;97.10;;;;;;5049374;28;20029;-39
2022/05/19 01:01:43;;;;;;;5.18;2.55;;;16.00;96.90;;;;;;5050860;28;20100;-39
2022/05/19 01:04:14;;;;;;;4.85;2.50;;;16.00;96.60;;;;;;5050898;28;20053;-39
2022/05/19 01:06:42;;;;;;;5.68;2.45;;;16.00;96.70;;;;;;5050017;28;20110;-39
2022/05/19 01:09:12;;;;;;;7.85;3.08;;;16.00;96.90;;;;;;5030927;28;20053;-39
2022/05/19 01:11:38;;;;;;;8.13;3.70;;;16.00;96.90;;;;;;5029624;28;20474;-39
2022/05/19 01:14:06;;;;;;;11.70;4.40;;;16.00;97.00;;;;;;5030847;28;20041;-40
2022/05/19 01:16:32;;;;;;;9.60;4.40;;;15.90;97.20;;;;;;5029623;28;20425;-39
2022/05/19 01:18:58;;;;;;;9.05;4.60;;;16.00;97.20;;;;;;5050523;28;20094;-40
2022/05/19 01:21:28;;;;;;;9.05;4.28;;;15.90;97.10;;;;;;5050746;28;20504;-40
2022/05/19 01:24:00;;;;;;;;;;;15.90;97.10;;;;;;5051028;28;20454;-39
2022/05/19 01:26:43;;;;;;;8.95;4.80;;;15.90;96.90;;;;;;5050689;28;19944;-40
2022/05/19 01:29:11;;;;;;;8.57;3.92;;;16.00;96.60;;;;;;5011001;28;20029;-40
2022/05/19 01:31:53;;;;;;;7.20;3.63;;;15.90;96.40;;;;;;5011058;28;20084;-48
2022/05/19 01:34:22;;;;;;;8.10;3.00;;;15.90;96.20;;;;;;5010931;28;20105;-49
2022/05/19 01:36:49;;;;;;;5.97;3.03;;;15.90;96.60;;;;;;5012509;28;20045;-43
2022/05/19 01:39:23;;;;;;;6.88;2.95;;;15.80;96.70;;;;;;5050276;28;20681;-53
2022/05/19 01:42:04;;;;;;;7.80;3.38;;;15.80;96.80;;;;;;5050497;28;20021;-39
2022/05/19 01:44:50;;;;;;;8.55;3.65;;;15.80;97.00;;;;;;5050455;28;20385;-49
2022/05/19 01:47:37;;;;;;;8.00;3.55;;;15.80;96.90;;;;;;5046027;28;20455;-50
2022/05/19 01:50:08;;;;;;;6.63;3.10;;;15.80;96.90;;;;;;5030625;28;20057;-45
2022/05/19 01:52:44;;;;;;;7.07;3.60;;;15.80;96.80;;;;;;5030602;28;20478;-39
2022/05/19 01:55:17;;;;;;;6.03;3.08;;;15.80;96.70;;;;;;5032330;28;20026;-50
2022/05/19 01:57:45;;;;;;;6.80;3.28;;;15.80;97.00;;;;;;5041444;28;20110;-42
2022/05/19 02:00:18;;;;;;;8.77;3.50;;;15.80;97.00;;;;;;5053929;28;20017;-49
2022/05/19 02:02:51;;;;;;;6.10;3.03;;;15.80;97.00;;;;;;5053945;28;20037;-50
2022/05/19 02:05:57;;;;;;;6.65;3.00;;;15.80;96.90;;;;;;5053997;28;20048;-46
2022/05/19 02:08:29;;;;;;;6.35;3.58;;;15.80;96.90;;;;;;5040456;28;20512;-52
2022/05/19 02:10:59;;;;;;;8.82;4.40;;;15.80;97.00;;;;;;5033829;28;20021;-56
2022/05/19 02:13:27;;;;;;;9.70;5.63;;;15.80;96.70;;;;;;5033959;28;20053;-57
2022/05/19 02:15:53;;;;;;;9.20;5.22;;;15.80;96.60;;;;;;5033836;28;20044;-45
2022/05/19 02:18:24;;;;;;;10.10;4.93;;;15.80;96.80;;;;;;5046016;28;20045;-57
2022/05/19 02:20:52;;;;;;;8.38;4.50;;;15.80;96.80;;;;;;5053880;28;20037;-50
2022/05/19 02:23:18;;;;;;;7.85;4.07;;;15.80;96.90;;;;;;5053431;28;20037;-50
2022/05/19 02:25:47;;;;;;;7.95;3.70;;;15.80;97.00;;;;;;5051734;28;20017;-55
2022/05/19 02:28:20;;;;;;;7.38;3.50;;;15.80;97.30;;;;;;5053442;28;20104;-48
2022/05/19 02:30:46;;;;;;;6.90;2.95;;;15.70;97.80;;;;;;5053381;28;20031;-49
2022/05/19 02:33:14;;;;;;;8.15;3.85;;;15.80;97.80;;;;;;5053344;28;20100;-49
2022/05/19 02:35:40;;;;;;;7.30;3.30;;;15.80;97.70;;;;;;5043390;28;20033;-51
2022/05/19 02:38:06;;;;;;;7.78;3.15;;;15.80;97.40;;;;;;5033349;28;20493;-55
2022/05/19 02:40:35;;;;;;;5.05;2.70;;;15.70;96.90;;;;;;5033387;28;20545;-53
2022/05/19 02:43:01;;;;;;;5.25;3.03;;;15.80;96.90;;;;;;5033206;28;20405;-44
2022/05/19 02:45:29;;;;;;;4.90;3.22;;;15.80;96.80;;;;;;5040371;28;20041;-47
2022/05/19 02:47:55;;;;;;;6.03;3.15;;;15.80;96.80;;;;;;5053169;28;20031;-55
2022/05/19 02:50:21;;;;;;;6.53;3.67;;;15.80;96.70;;;;;;5053080;28;20104;-56
2022/05/19 02:52:48;;;;;;;8.35;4.18;;;15.80;96.70;;;;;;5053168;28;20556;-39
2022/05/19 02:55:14;;;;;;;6.78;3.53;;;15.70;96.60;;;;;;5047269;28;20045;-39
2022/05/19 02:57:42;;;;;;;7.40;3.88;;;15.70;96.50;;;;;;5033091;28;20057;-39
2022/05/19 03:00:14;;;;;;;8.52;4.20;;;15.60;96.40;;;;;;5033034;28;20021;-40
2022/05/19 03:02:44;;;;;;;9.02;5.28;;;15.60;96.60;;;;;;5032729;28;20033;-40
2022/05/19 03:05:15;;;;;;;10.57;5.65;;;15.60;96.70;;;;;;5037549;28;20025;-40
2022/05/19 03:07:41;;;;;;;8.82;4.95;;;15.50;96.70;;;;;;5051992;28;20060;-43
2022/05/19 03:10:07;;;;;;;10.73;5.75;;;15.50;96.60;;;;;;5052523;28;20477;-41
2022/05/19 03:12:33;;;;;;;11.52;6.05;;;15.40;96.70;;;;;;5051343;28;20036;-43
2022/05/19 03:14:59;;;;;;;12.50;7.38;;;15.40;97.00;;;;;;5049223;28;20026;-43
2022/05/19 03:17:25;;;;;;;14.82;7.68;;;15.40;97.30;;;;;;5032565;28;20025;-47
2022/05/19 03:19:55;;;;;;;16.05;8.40;;;15.40;97.30;;;;;;5032609;28;20532;-40
2022/05/19 03:22:21;;;;;;;12.18;7.05;;;15.30;97.20;;;;;;5047777;28;20025;-55
2022/05/19 03:24:47;;;;;;;11.43;6.07;;;15.40;97.20;;;;;;5017496;28;20033;-48
2022/05/19 03:27:13;;;;;;;7.22;4.63;;;15.40;97.20;;;;;;5052168;28;20024;-48
2022/05/19 03:29:39;;;;;;;5.82;3.42;;;15.40;97.10;;;;;;5052214;28;20029;-44
2022/05/19 03:32:05;;;;;;;5.05;3.03;;;15.40;97.00;;;;;;5052198;28;20028;-50
2022/05/19 03:34:31;;;;;;;5.55;2.97;;;15.30;97.10;;;;;;5050786;28;20051;-40
2022/05/19 03:36:56;;;;;;;7.78;2.88;;;15.30;97.10;;;;;;5032925;28;20041;-47
2022/05/19 03:39:22;;;;;;;7.72;3.28;;;15.20;97.10;;;;;;5032155;28;20105;-54
2022/05/19 03:41:48;;;;;;;24.17;4.10;;;15.20;97.10;;;;;;5032312;28;20048;-50
2022/05/19 03:44:13;;;;;;;6.25;3.20;;;15.20;97.20;;;;;;5030781;28;20363;-46
2022/05/19 03:46:39;;;;;;;6.53;3.20;;;15.10;97.20;;;;;;5046714;28;20175;-47
2022/05/19 03:49:05;;;;;;;4.88;2.97;;;15.10;97.20;;;;;;5051953;28;20101;-42
2022/05/19 03:51:33;;;;;;;3.97;2.80;;;15.00;97.10;;;;;;5051938;28;20017;-43
2022/05/19 03:53:59;;;;;;;4.63;2.97;;;15.00;96.80;;;;;;5051781;28;20466;-44
2022/05/19 03:56:26;;;;;;;5.43;3.15;;;15.00;96.70;;;;;;5037256;28;20030;-49
2022/05/19 03:58:52;;;;;;;6.68;3.30;;;15.00;96.60;;;;;;5031872;28;20437;-48
2022/05/19 04:01:19;;;;;;;4.30;3.17;;;15.00;96.70;;;;;;5031993;28;20069;-52
2022/05/19 04:03:45;;;;;;;4.80;3.25;;;15.00;96.80;;;;;;5031611;28;20742;-51
2022/05/19 04:06:11;;;;;;;5.57;3.10;;;15.00;97.00;;;;;;5043712;28;20104;-48
2022/05/19 04:08:36;;;;;;;5.53;2.92;;;15.00;96.90;;;;;;5035249;28;20061;-43
2022/05/19 04:11:02;;;;;;;8.70;3.40;;;15.00;96.70;;;;;;5031662;28;20167;-47
2022/05/19 04:13:28;;;;;;;4.68;3.13;;;15.00;96.80;;;;;;5031618;28;20123;-45
2022/05/19 04:15:54;;;;;;;9.73;3.85;;;15.00;96.80;;;;;;5040955;28;20108;-42
2022/05/19 04:18:20;;;;;;;14.23;3.75;;;15.10;96.80;;;;;;5050649;28;20029;-47
2022/05/19 04:20:45;;;;;;;5.70;2.40;;;15.00;96.40;;;;;;5051398;28;20021;-50
2022/05/19 04:23:11;;;;;;;4.35;2.40;;;15.00;96.40;;;;;;5051150;28;20032;-50
2022/05/19 04:25:39;;;;;;;4.63;2.67;;;15.00;96.60;;;;;;5042594;28;20046;-46
2022/05/19 04:28:05;;;;;;;3.60;2.70;;;15.00;96.60;;;;;;5031313;28;20030;-53
2022/05/19 04:30:31;;;;;;;4.97;3.08;;;15.00;96.70;;;;;;5031208;28;20064;-47
2022/05/19 04:32:56;;;;;;;8.15;4.00;;;15.00;97.10;;;;;;5031284;28;20033;-53
2022/05/19 04:35:22;;;;;;;6.43;3.70;;;15.00;97.40;;;;;;5035998;28;20108;-46
2022/05/19 04:37:48;;;;;;;7.90;3.60;;;15.00;97.40;;;;;;5050969;28;20036;-49
2022/05/19 04:40:16;;;;;;;8.43;5.10;;;15.10;97.50;;;;;;5051158;28;20021;-47
2022/05/19 04:42:42;;;;;;;15.82;5.93;;;15.10;97.60;;;;;;5051008;28;20135;-44
2022/05/19 04:45:10;;;;;;;11.18;5.10;;;15.20;97.70;;;;;;5048008;28;20060;-41
2022/05/19 04:47:35;;;;;;;11.40;5.70;;;15.20;97.80;;;;;;5020481;28;20410;-47
2022/05/19 04:50:01;;;;;;;13.55;7.00;;;15.30;97.80;;;;;;5028354;28;20029;-49
2022/05/19 04:52:27;;;;;;;14.90;7.93;;;15.30;97.80;;;;;;5024434;28;20036;-46
2022/05/19 04:54:52;;;;;;;23.88;9.15;;;15.30;97.90;;;;;;5015183;28;20040;-52
2022/05/19 04:57:18;;;;;;;15.27;8.45;;;15.30;97.90;;;;;;5025172;28;20066;-52
2022/05/19 04:59:44;;;;;;;15.48;8.52;;;15.30;97.90;;;;;;5018871;28;20038;-46
2022/05/19 05:02:11;;;;;;;11.35;7.72;;;15.30;97.70;;;;;;5019511;28;20022;-49
2022/05/19 05:04:37;;;;;;;14.57;8.00;;;15.40;97.70;;;;;;5026000;28;20061;-52
2022/05/19 05:07:03;;;;;;;17.20;9.80;;;15.50;97.40;;;;;;5029512;28;20025;-43
2022/05/19 05:09:29;;;;;;;14.27;8.73;;;15.40;97.40;;;;;;5021790;28;20029;-54
2022/05/19 05:11:55;;;;;;;17.30;10.00;;;15.40;97.50;;;;;;5020039;28;20408;-50
2022/05/19 05:14:21;;;;;;;17.80;9.73;;;15.40;97.40;;;;;;5023917;28;20478;-42
2022/05/19 05:16:52;;;;;;;13.88;8.63;;;15.50;97.70;;;;;;5021064;28;20066;-41
2022/05/19 05:19:21;;;;;;;13.07;9.13;;;15.50;97.70;;;;;;5025675;28;20159;-45
2022/05/19 05:21:48;;;;;;;17.27;9.73;;;15.50;97.40;;;;;;5024028;28;20022;-50
2022/05/19 05:24:14;;;;;;;15.75;8.60;;;15.50;97.40;;;;;;5029890;28;20056;-56
2022/05/19 05:26:40;;;;;;;13.50;8.52;;;15.50;97.30;;;;;;5025234;28;20101;-54
2022/05/19 05:29:06;;;;;;;14.75;9.00;;;15.40;97.20;;;;;;5025674;28;20116;-42
2022/05/19 05:31:31;;;;;;;12.77;9.13;;;15.30;97.30;;;;;;5034696;28;20017;-43
2022/05/19 05:33:57;;;;;;;16.95;9.60;;;15.40;97.50;;;;;;5017072;28;20085;-52
2022/05/19 05:36:23;;;;;;;14.95;9.55;;;15.30;97.50;;;;;;5021293;28;20025;-43
2022/05/19 05:38:48;;;;;;;15.40;9.02;;;15.30;97.60;;;;;;5021081;28;20033;-51
2022/05/19 05:41:14;;;;;;;14.32;9.27;;;15.30;97.60;;;;;;5014603;28;20053;-45
2022/05/19 05:43:40;;;;;;;14.10;9.57;;;15.30;97.60;;;;;;5027443;28;20056;-52
2022/05/19 05:46:11;;;;;;;14.55;10.57;;;15.40;97.60;;;;;;5032779;28;20041;-47
2022/05/19 05:48:38;;;;;;;16.77;11.00;;;15.40;97.60;;;;;;5034231;28;20513;-52
2022/05/19 05:51:07;;;;;;;20.17;11.10;;;15.40;97.50;;;;;;5034090;28;20025;-47
2022/05/19 05:53:35;;;;;;;22.58;10.90;;;15.40;97.40;;;;;;5033570;28;20025;-42
2022/05/19 05:56:01;;;;;;;15.85;11.10;;;15.40;97.20;;;;;;5019304;28;20025;-49
2022/05/19 05:58:27;;;;;;;18.05;11.63;;;15.50;97.60;;;;;;5029356;28;20033;-51
2022/05/19 06:00:53;;;;;;;17.10;12.43;;;15.40;97.40;;;;;;5029172;28;20036;-50
2022/05/19 06:03:19;;;;;;;17.85;12.00;;;15.50;97.20;;;;;;5025214;28;20040;-39
2022/05/19 06:05:45;;;;;;;21.52;13.05;;;15.40;97.50;;;;;;5032823;28;20025;-42
2022/05/19 06:08:11;;;;;;;17.73;12.68;;;15.30;97.40;;;;;;5032243;28;20070;-39
2022/05/19 06:10:37;;;;;;;16.80;12.77;;;15.30;97.70;;;;;;5034043;28;20029;-39
2022/05/19 06:13:03;;;;;;;18.05;13.50;;;15.40;97.40;;;;;;5032982;28;20393;-41
2022/05/19 06:15:29;;;;;;;18.45;13.85;;;15.40;97.60;;;;;;5033614;28;20402;-39
2022/05/19 06:17:54;;;;;;;21.83;13.82;;;15.40;97.60;;;;;;5033391;28;20038;-46
2022/05/19 06:20:20;;;;;;;16.58;13.57;;;15.40;97.70;;;;;;5031918;28;20112;-39
2022/05/19 06:22:47;;;;;;;16.75;12.98;;;15.60;97.70;;;;;;5032104;28;20120;-48
2022/05/19 06:25:16;;;;;;;17.15;12.63;;;15.60;97.40;;;;;;5031990;28;20018;-42
2022/05/19 06:27:43;;;;;;;18.00;13.32;;;15.70;97.50;;;;;;5031964;28;20053;-49
2022/05/19 06:30:09;;;;;;;17.58;13.85;;;15.70;97.20;;;;;;5031878;28;20030;-43
2022/05/19 06:32:36;;;;;;;17.52;14.02;;;15.80;97.40;;;;;;5031947;28;20096;-45
2022/05/19 06:35:02;;;;;;;20.90;14.15;;;15.80;96.90;;;;;;5032019;28;20155;-43
2022/05/19 06:37:28;;;;;;;17.60;13.27;;;15.80;97.60;;;;;;5033364;28;20018;-45
2022/05/19 06:39:53;;;;;;;18.55;14.38;;;15.90;97.50;;;;;;5033343;28;20036;-39
2022/05/19 06:42:19;;;;;;;17.02;12.93;;;15.90;97.00;;;;;;5032211;28;20061;-40
2022/05/19 06:44:45;;;;;;;18.30;12.75;;;16.00;96.80;;;;;;5033032;28;20108;-48
2022/05/19 06:47:15;;;;;;;16.77;12.38;;;16.00;96.30;;;;;;5033261;28;20033;-46
2022/05/19 06:49:52;;;;;;;16.83;12.05;;;15.90;96.40;;;;;;5033468;28;20027;-41
2022/05/19 06:52:21;;;;;;;17.73;12.55;;;15.90;96.50;;;;;;5033233;28;20128;-46
2022/05/19 06:54:49;;;;;;;16.75;12.25;;;15.90;96.40;;;;;;5033116;28;20032;-46
2022/05/19 06:57:16;;;;;;;18.17;11.82;;;15.80;96.20;;;;;;5033081;28;20029;-47
2022/05/19 06:59:42;;;;;;;19.55;12.77;;;15.80;96.70;;;;;;5032927;28;20021;-51
2022/05/19 07:02:09;;;;;;;19.23;12.32;;;15.70;96.50;;;;;;5029454;28;20049;-45
2022/05/19 07:04:36;;;;;;;16.15;11.75;;;15.70;96.70;;;;;;5028650;28;20029;-46
2022/05/19 07:07:04;;;;;;;15.20;11.90;;;15.70;96.70;;;;;;5032690;28;20017;-44
2022/05/19 07:09:30;;;;;;;18.67;12.35;;;15.70;96.90;;;;;;5032760;28;20060;-44
2022/05/19 07:11:56;;;;;;;17.48;11.57;;;15.70;96.80;;;;;;5032673;28;20026;-42
2022/05/19 07:14:22;;;;;;;15.68;12.40;;;15.70;96.70;;;;;;5031632;28;20032;-39
2022/05/19 07:16:48;;;;;;;16.08;12.07;;;15.60;96.80;;;;;;5032601;28;20026;-43
2022/05/19 07:22:00;;;;;;;24.20;12.88;;;15.50;96.40;;;;;;5028882;28;20033;-41
2022/05/19 07:24:26;;;;;;;16.05;12.80;;;15.50;96.70;;;;;;5025606;28;20034;-39
2022/05/19 07:26:55;;;;;;;15.27;13.32;;;15.50;97.10;;;;;;5024438;28;20022;-40
2022/05/19 07:29:21;;;;;;;19.30;14.23;;;15.40;97.20;;;;;;5021111;28;20036;-46
2022/05/19 07:31:48;;;;;;;17.63;13.65;;;15.40;97.00;;;;;;5020150;28;20026;-43
2022/05/19 07:34:15;;;;;;;20.23;14.13;;;15.40;97.20;;;;;;5016718;28;20393;-53
2022/05/19 07:36:41;;;;;;;18.30;13.50;;;15.40;97.50;;;;;;5017894;28;20029;-50
2022/05/19 07:39:08;;;;;;;18.20;14.70;;;15.40;97.50;;;;;;5019080;28;20471;-52
2022/05/19 07:41:33;;;;;;;18.17;14.60;;;15.50;97.40;;;;;;5012411;28;20041;-43
2022/05/19 07:44:00;;;;;;;18.35;14.35;;;15.50;97.50;;;;;;5012285;28;20038;-58
2022/05/19 07:46:29;;;;;;;20.08;14.27;;;15.60;97.70;;;;;;5012310;28;20077;-46
2022/05/19 07:48:56;;;;;;;19.20;13.88;;;15.70;97.50;;;;;;5012326;28;20037;-42
2022/05/19 07:51:28;;;;;;;20.48;15.27;;;15.80;97.60;;;;;;5012332;28;20022;-47
2022/05/19 07:53:54;;;;;;;17.40;13.82;;;15.90;97.70;;;;;;5011957;28;20022;-44
2022/05/19 07:56:21;;;;;;;17.17;13.73;;;15.90;97.40;;;;;;5012239;28;20478;-41
2022/05/19 07:58:47;;;;;;;20.58;13.90;;;16.00;97.30;;;;;;5019902;28;20029;-48
2022/05/19 08:01:16;;;;;;;17.92;13.48;;;16.10;97.10;;;;;;5031272;28;20029;-49
2022/05/19 08:03:42;;;;;;;17.08;13.27;;;16.10;97.00;;;;;;5031497;28;20041;-51
2022/05/19 08:06:10;;;;;;;15.52;13.07;;;16.10;96.70;;;;;;5031584;28;20030;-46
2022/05/19 08:08:39;;;;;;;18.50;13.05;;;16.10;96.40;;;;;;5031304;28;20034;-41
2022/05/19 08:11:05;;;;;;;18.40;13.32;;;16.20;96.50;;;;;;5046927;28;20117;-44
2022/05/19 08:16:15;;;;;;;14.20;12.05;;;16.10;96.30;;;;;;5031579;28;20108;-48
2022/05/19 08:18:41;;;;;;;15.32;11.30;;;16.10;96.40;;;;;;5031456;28;20452;-49
2022/05/19 08:21:11;;;;;;;15.70;11.82;;;16.00;96.10;;;;;;5031455;28;20028;-47
2022/05/19 08:23:40;;;;;;;14.15;11.40;;;16.00;96.10;;;;;;5031394;28;20045;-46
2022/05/19 08:26:09;;;;;;;14.15;11.25;;;16.00;96.10;;;;;;5031563;28;20370;-54
2022/05/19 08:28:37;;;;;;;21.02;11.95;;;16.00;96.30;;;;;;5031400;28;20033;-40
2022/05/19 08:31:04;;;;;;;15.85;13.15;;;15.90;95.90;;;;;;5031353;28;20028;-39
2022/05/19 08:33:30;;;;;;;15.77;12.63;;;16.00;96.60;;;;;;5031249;28;20025;-47
2022/05/19 08:35:56;;;;;;;19.10;14.93;;;16.00;96.60;;;;;;5031289;28;20394;-53
2022/05/19 08:38:22;;;;;;;17.95;13.90;;;16.20;97.20;;;;;;5031434;28;20040;-46
2022/05/19 08:40:52;;;;;;;20.60;14.65;;;16.20;96.90;;;;;;5031330;28;20025;-56
2022/05/19 08:43:19;;;;;;;;;;;16.40;97.10;;;;;;5031479;28;20043;-46
2022/05/19 08:45:54;;;;;;;18.40;13.20;;;16.60;96.80;;;;;;5030531;28;20289;-61
2022/05/19 08:48:22;;;;;;;15.93;14.00;;;16.80;96.30;;;;;;5030888;28;20079;-47
2022/05/19 08:51:05;;;;;;;14.52;10.85;;;17.00;96.10;;;;;;5030922;28;20091;-42
2022/05/19 08:53:38;;;;;;;14.15;11.50;;;17.30;95.70;;;;;;5031028;28;20034;-53
2022/05/19 08:56:19;;;;;;;17.85;13.18;;;17.40;95.10;;;;;;5030995;28;20159;-52
2022/05/19 08:59:23;;;;;;;12.50;9.10;;;17.60;94.60;;;;;;5030756;28;20021;-44
2022/05/19 09:02:02;;;;;;;8.80;6.57;;;17.90;93.50;;;;;;5013024;28;20075;-51
2022/05/19 09:05:01;;;;;;;8.98;5.38;;;18.10;92.10;;;;;;5011788;28;20453;-56
2022/05/19 09:08:02;;;;;;;6.55;4.35;;;18.30;93.30;;;;;;5035086;28;20029;-49
2022/05/19 09:10:37;;;;;;;5.70;3.45;;;18.60;92.50;;;;;;5010941;28;20168;-55
2022/05/19 09:13:27;;;;;;;4.28;2.60;;;18.60;90.90;;;;;;5015123;28;20471;-44
2022/05/19 09:15:53;;;;;;;4.25;2.20;;;18.80;90.70;;;;;;5015024;28;20410;-44
2022/05/19 09:18:26;;;;;;;6.03;2.58;;;18.70;89.10;;;;;;5030307;28;20022;-39
2022/05/19 09:20:55;;;;;;;4.25;2.17;;;18.80;88.80;;;;;;5033810;28;20022;-38
2022/05/19 09:23:22;;;;;;;3.95;2.10;;;19.00;90.00;;;;;;5034779;28;20037;-43
2022/05/19 09:25:54;;;;;;;5.57;2.55;;;19.10;88.90;;;;;;5034661;28;20486;-38
2022/05/19 09:28:20;;;;;;;5.03;2.28;;;19.40;90.10;;;;;;5049984;28;20477;-41
2022/05/19 09:30:52;;;;;;;5.82;2.60;;;20.00;89.10;;;;;;5028681;28;20045;-39
2022/05/19 09:33:21;;;;;;;5.72;2.33;;;20.60;82.70;;;;;;5012767;28;20092;-48
2022/05/19 09:35:54;;;;;;;4.50;2.30;;;21.00;80.20;;;;;;5012927;28;20033;-57
2022/05/19 09:38:50;;;;;;;4.43;2.35;;;21.60;80.20;;;;;;5013033;28;20030;-55
2022/05/19 09:41:40;;;;;;;6.57;2.75;;;22.30;76.90;;;;;;5012771;28;20029;-54
2022/05/19 09:44:13;;;;;;;5.88;2.90;;;23.50;77.30;;;;;;5012664;28;20529;-55
2022/05/19 09:46:50;;;;;;;5.57;2.20;;;23.70;69.60;;;;;;5013121;28;20407;-39
2022/05/19 09:49:44;;;;;;;5.60;2.67;;;22.90;65.70;;;;;;5011109;28;20416;-56
2022/05/19 09:52:17;;;;;;;6.63;3.53;;;22.60;70.70;;;;;;5012572;28;20021;-51
2022/05/19 09:54:51;;;;;;;5.43;3.10;;;21.80;74.50;;;;;;5011527;28;20034;-51
2022/05/19 09:57:24;;;;;;;7.07;3.13;;;21.50;79.80;;;;;;5012734;28;20109;-45
2022/05/19 09:59:53;;;;;;;7.22;2.70;;;21.70;79.10;;;;;;5012804;28;20066;-43
2022/05/19 10:02:25;;;;;;;6.82;3.25;;;21.80;80.00;;;;;;5013176;28;20116;-52
2022/05/19 10:04:57;;;;;;;5.40;2.70;;;21.80;81.60;;;;;;5014315;28;20036;-52
2022/05/19 10:07:30;;;;;;;4.55;2.58;;;22.60;81.40;;;;;;5014218;28;20719;-48
2022/05/19 10:09:57;;;;;;;4.78;2.35;;;23.80;77.60;;;;;;5014363;28;20042;-61
2022/05/19 10:12:28;;;;;;;4.10;2.20;;;24.50;74.50;;;;;;5014122;28;20029;-51
2022/05/19 10:15:10;;;;;;;4.57;2.15;;;25.00;76.90;;;;;;5014188;28;20034;-38
2022/05/19 10:18:00;;;;;;;4.22;2.20;;;24.50;61.60;;;;;;5013975;28;20405;-40
2022/05/19 10:20:30;;;;;;;4.88;2.08;;;23.40;67.90;;;;;;5013875;28;20482;-47
2022/05/19 10:23:38;;;;;;;4.72;2.38;;;22.80;74.60;;;;;;5013948;28;20042;-46
2022/05/19 10:26:33;;;;;;;4.10;1.88;;;23.00;78.00;;;;;;5004787;28;20050;-41
2022/05/19 10:32:33;;;;;;;5.05;2.30;;;23.10;69.20;;;;;;5013986;28;20033;-47
2022/05/19 10:35:10;;;;;;;6.38;2.22;;;22.20;70.90;;;;;;5013820;28;20022;-49
2022/05/19 10:38:05;;;;;;;5.68;1.90;;;22.30;71.90;;;;;;5013768;28;20101;-56
2022/05/19 10:40:38;;;;;;;3.55;1.70;;;22.30;71.60;;;;;;5013619;28;20428;-56
2022/05/19 10:43:27;;;;;;;6.07;2.05;;;22.60;70.20;;;;;;5013564;28;20042;-53
2022/05/19 10:45:56;;;;;;;4.88;1.30;;;22.90;81.50;;;;;;5013285;28;20054;-55
2022/05/19 10:48:24;;;;;;;6.13;1.90;;;23.30;73.30;;;;;;5013266;28;20045;-43
2022/05/19 10:51:08;;;;;;;5.28;1.70;;;24.10;76.40;;;;;;5013462;28;20406;-48
2022/05/19 10:54:10;;;;;;;5.13;1.58;;;24.60;71.20;;;;;;5013254;28;20026;-40
2022/05/19 10:56:57;;;;;;;6.50;1.75;;;24.60;62.90;;;;;;5004800;28;20042;-56
2022/05/19 10:59:41;;;;;;;4.20;1.40;;;23.60;59.20;;;;;;5013349;28;20091;-52
2022/05/19 11:02:15;;;;;;;4.95;1.33;;;23.00;64.30;;;;;;5013003;28;20022;-43
2022/05/19 11:05:07;;;;;;;4.10;1.40;;;23.00;68.60;;;;;;5013130;28;20029;-52
2022/05/19 11:07:49;;;;;;;6.20;1.58;;;22.80;73.10;;;;;;5013329;28;20022;-55
2022/05/19 11:10:22;;;;;;;7.53;1.92;;;23.20;78.40;;;;;;5013478;28;20091;-51
2022/05/19 11:12:59;;;;;;;5.75;1.38;;;23.70;65.30;;;;;;5013027;28;20028;-51
2022/05/19 11:15:41;;;;;;;4.47;1.58;;;24.10;70.50;;;;;;5013009;28;20037;-49
2022/05/19 11:18:28;;;;;;;6.10;1.50;;;24.60;62.00;;;;;;5013098;28;20080;-42
2022/05/19 11:21:09;;;;;;;6.40;1.35;;;25.20;69.20;;;;;;5012853;28;20494;-49
2022/05/19 11:23:44;;;;;;;6.20;1.38;;;25.00;59.00;;;;;;5012668;28;20049;-37
2022/05/19 11:26:31;;;;;;;6.95;1.42;;;25.20;61.80;;;;;;5012718;28;20108;-41
2022/05/19 11:29:08;;;;;;;5.07;1.65;;;25.20;60.20;;;;;;5012321;28;20179;-42
2022/05/19 11:32:01;;;;;;;4.38;1.30;;;25.60;67.20;;;;;;5012778;28;20029;-42
2022/05/19 11:34:33;;;;;;;5.80;1.33;;;25.80;64.90;;;;;;5012537;28;20033;-45
2022/05/19 11:37:14;;;;;;;5.10;1.40;;;25.90;53.50;;;;;;5012503;28;20112;-45
2022/05/19 11:40:00;;;;;;;4.93;1.13;;;25.90;60.30;;;;;;5012652;28;20014;-43
2022/05/19 11:42:40;;;;;;;6.22;1.60;;;26.30;61.00;;;;;;5011980;28;20605;-42
2022/05/19 11:45:12;;;;;;;3.60;1.10;;;26.20;59.20;;;;;;5012319;28;20022;-47
2022/05/19 11:56:43;;;;;;;4.55;1.38;;;24.20;59.70;;;;;;4980951;28;20041;-45
2022/05/19 11:59:10;;;;;;;7.20;1.52;;;23.80;64.60;;;;;;5012012;28;20022;-43
2022/05/19 12:01:46;;;;;;;5.68;1.20;;;23.40;62.60;;;;;;5012107;28;20030;-49
2022/05/19 12:04:28;;;;;;;4.90;1.40;;;23.00;63.70;;;;;;5012079;28;20037;-50
2022/05/19 12:07:15;;;;;;;5.82;1.30;;;22.70;65.30;;;;;;5012199;28;20034;-48
2022/05/19 12:09:48;;;;;;;6.15;1.30;;;22.30;64.10;;;;;;5011940;28;20496;-45
2022/05/19 12:12:17;;;;;;;6.03;1.75;;;22.10;65.00;;;;;;5012123;28;20021;-41
2022/05/19 12:15:21;;;;;;;7.30;1.60;;;21.90;65.00;;;;;;5012127;28;20025;-45
2022/05/19 12:17:59;;;;;;;7.03;1.83;;;21.60;68.50;;;;;;5011851;28;20117;-50
2022/05/19 12:20:51;;;;;;;6.40;1.75;;;21.50;70.30;;;;;;5011798;28;20060;-44
2022/05/19 12:23:27;;;;;;;6.60;1.70;;;21.60;75.80;;;;;;5011773;28;20436;-52
2022/05/19 12:26:20;;;;;;;11.60;2.92;;;22.10;73.00;;;;;;5011709;28;20447;-52
2022/05/19 12:29:11;;;;;;;7.03;2.10;;;22.30;70.90;;;;;;5010029;28;20041;-37
2022/05/19 12:31:57;;;;;;;8.88;2.95;;;22.90;72.50;;;;;;5009892;28;20137;-37
2022/05/19 12:34:27;;;;;;;8.43;2.60;;;23.50;72.30;;;;;;5011594;28;20065;-40
2022/05/19 12:37:13;;;;;;;4.70;1.50;;;23.90;72.50;;;;;;5011574;28;20092;-50
2022/05/19 12:39:49;;;;;;;7.03;1.65;;;24.10;66.00;;;;;;4989957;28;20037;-39
2022/05/19 12:42:34;;;;;;;6.28;1.92;;;24.10;58.90;;;;;;5011511;28;20022;-38
2022/05/19 12:45:12;;;;;;;8.27;2.13;;;24.00;67.30;;;;;;5019310;28;20032;-55
2022/05/19 12:47:55;;;;;;;7.40;2.47;;;24.20;63.60;;;;;;5030366;28;20041;-40
2022/05/19 12:50:23;;;;;;;9.95;3.75;;;24.10;66.20;;;;;;5031059;28;20045;-38
2022/05/19 12:53:13;;;;;;;9.75;3.30;;;24.10;62.30;;;;;;5031219;28;20039;-47
2022/05/19 12:55:39;;;;;;;11.57;3.72;;;24.00;66.40;;;;;;5031176;28;20032;-38
2022/05/19 12:58:46;;;;;;;9.73;3.80;;;23.90;64.00;;;;;;5031227;28;20036;-50
2022/05/19 13:01:13;;;;;;;10.70;3.35;;;23.60;65.30;;;;;;5031182;28;20033;-48
2022/05/19 13:03:42;;;;;;;8.80;3.13;;;23.10;68.30;;;;;;5030933;28;20037;-48
2022/05/19 13:06:12;;;;;;;9.10;3.10;;;22.90;65.70;;;;;;5030962;28;20013;-45
2022/05/19 13:08:38;;;;;;;;;;;23.00;64.40;;;;;;5031422;28;20034;-48
2022/05/19 13:11:18;;;;;;;8.55;3.17;;;23.10;66.80;;;;;;5030864;28;20424;-48
2022/05/19 13:13:47;;;;;;;8.55;3.42;;;23.10;66.80;;;;;;5031006;28;20045;-53
2022/05/19 13:16:19;;;;;;;7.63;2.83;;;23.30;68.70;;;;;;5030706;28;20368;-43
2022/05/19 13:18:54;;;;;;;9.25;2.88;;;23.30;63.70;;;;;;5030617;28;20481;-48
2022/05/19 13:21:28;;;;;;;10.38;3.35;;;23.30;64.70;;;;;;5030761;28;20490;-44